createdAt,value
2023-04-27T00:01:06.362Z,4.50
2023-04-27T00:03:33.073Z,4.65
2023-04-27T00:05:59.974Z,4.78
2023-04-27T00:08:26.742Z,5.15
2023-04-27T00:10:53.218Z,4.47
2023-04-27T00:13:19.720Z,4.28
2023-04-27T00:15:46.284Z,4.95
2023-04-27T00:18:12.792Z,5.15
2023-04-27T00:20:40.109Z,4.20
2023-04-27T00:23:07.152Z,4.32
2023-04-27T00:25:33.679Z,4.50
2023-04-27T00:28:00.245Z,4.70
2023-04-27T00:30:26.723Z,4.40
2023-04-27T00:32:53.243Z,4.38
2023-04-27T00:35:20.125Z,4.53
2023-04-27T00:37:46.674Z,4.40
2023-04-27T00:40:13.309Z,4.93
2023-04-27T00:42:39.784Z,4.90
2023-04-27T00:45:06.955Z,4.50
2023-04-27T00:47:33.531Z,5.18
2023-04-27T00:50:00.832Z,4.72
2023-04-27T00:52:27.282Z,4.70
2023-04-27T00:54:53.752Z,4.60
2023-04-27T00:57:20.606Z,4.30
2023-04-27T00:59:47.399Z,4.57
2023-04-27T01:02:14.118Z,4.60
2023-04-27T01:04:41.445Z,4.53
2023-04-27T01:07:08.139Z,4.65
2023-04-27T01:09:34.845Z,4.55
2023-04-27T01:12:01.597Z,4.40
2023-04-27T01:14:28.059Z,4.53
2023-04-27T01:16:54.672Z,4.47
2023-04-27T01:19:21.159Z,3.83
2023-04-27T01:21:47.608Z,4.00
2023-04-27T01:24:14.128Z,4.22
2023-04-27T01:26:40.580Z,4.30
2023-04-27T01:29:07.096Z,4.20
2023-04-27T01:31:34.054Z,4.45
2023-04-27T01:34:00.603Z,4.72
2023-04-27T01:36:27.778Z,4.03
2023-04-27T01:38:54.264Z,4.95
2023-04-27T01:41:20.830Z,4.00
2023-04-27T01:43:47.325Z,4.35
2023-04-27T01:46:14.646Z,4.30
2023-04-27T01:48:42.032Z,5.20
2023-04-27T01:51:08.677Z,4.43
2023-04-27T01:53:35.220Z,4.85
2023-04-27T01:56:01.815Z,4.75
2023-04-27T01:58:28.598Z,4.82
2023-04-27T02:00:55.178Z,5.20
2023-04-27T02:03:22.140Z,5.20
2023-04-27T02:05:48.851Z,5.43
2023-04-27T02:08:15.381Z,4.78
2023-04-27T02:10:43.421Z,4.90
2023-04-27T02:13:09.971Z,4.88
2023-04-27T02:15:36.651Z,4.40
2023-04-27T02:18:03.893Z,5.70
2023-04-27T02:20:33.597Z,4.80
2023-04-27T02:23:01.009Z,3.90
2023-04-27T02:25:27.933Z,4.32
2023-04-27T02:27:55.120Z,4.47
2023-04-27T02:30:22.368Z,4.40
2023-04-27T02:32:49.687Z,4.13
2023-04-27T02:35:16.245Z,4.43
2023-04-27T02:37:42.756Z,4.20
2023-04-27T02:40:09.958Z,4.47
2023-04-27T02:42:38.907Z,4.55
2023-04-27T02:45:09.020Z,5.68
2023-04-27T02:47:35.706Z,4.47
2023-04-27T02:50:02.790Z,4.03
2023-04-27T02:52:29.274Z,3.60
2023-04-27T02:54:55.742Z,3.70
2023-04-27T02:57:22.239Z,3.95
2023-04-27T02:59:48.780Z,4.00
2023-04-27T03:02:15.674Z,4.13
2023-04-27T03:04:42.317Z,3.65
2023-04-27T03:07:09.009Z,4.63
2023-04-27T03:09:35.598Z,5.40
2023-04-27T03:12:02.609Z,5.50
2023-04-27T03:14:29.188Z,5.63
2023-04-27T03:16:57.329Z,5.35
2023-04-27T03:19:23.959Z,5.32
2023-04-27T03:21:50.737Z,5.03
2023-04-27T03:24:17.268Z,5.05
2023-04-27T03:26:43.780Z,5.18
2023-04-27T03:29:10.254Z,5.35
2023-04-27T03:31:36.921Z,5.70
2023-04-27T03:34:03.509Z,4.78
2023-04-27T03:36:30.005Z,4.25
2023-04-27T03:38:56.566Z,4.90
2023-04-27T03:41:23.038Z,4.50
2023-04-27T03:43:50.855Z,4.72
2023-04-27T03:46:17.403Z,4.80
2023-04-27T03:48:43.985Z,4.90
2023-04-27T03:51:10.500Z,4.80
2023-04-27T03:53:36.981Z,4.63
2023-04-27T03:56:03.750Z,4.07
2023-04-27T03:58:30.238Z,5.05
2023-04-27T04:00:57.297Z,5.18
2023-04-27T04:03:23.970Z,4.45
2023-04-27T04:05:50.615Z,4.75
2023-04-27T04:08:17.135Z,4.65
2023-04-27T04:10:43.635Z,4.43
2023-04-27T04:13:10.247Z,4.40
2023-04-27T04:15:36.703Z,4.28
2023-04-27T04:18:03.392Z,3.92
2023-04-27T04:20:29.911Z,4.75
2023-04-27T04:22:56.332Z,6.45
2023-04-27T04:25:22.864Z,7.57
2023-04-27T04:27:49.418Z,8.57
2023-04-27T04:30:16.549Z,7.57
2023-04-27T04:32:45.013Z,8.32
2023-04-27T04:35:11.926Z,9.48
2023-04-27T04:37:38.698Z,9.43
2023-04-27T04:40:09.880Z,9.52
2023-04-27T04:42:37.692Z,10.02
2023-04-27T04:45:04.766Z,8.30
2023-04-27T04:47:32.349Z,9.13
2023-04-27T04:49:59.040Z,8.45
2023-04-27T04:52:25.622Z,9.27
2023-04-27T04:54:53.220Z,6.88
2023-04-27T04:57:19.902Z,7.57
2023-04-27T04:59:46.387Z,6.93
2023-04-27T05:02:12.886Z,6.72
2023-04-27T05:04:39.418Z,6.82
2023-04-27T05:07:06.840Z,6.28
2023-04-27T05:09:33.378Z,6.03
2023-04-27T05:12:02.014Z,5.85
2023-04-27T05:14:28.574Z,5.93
2023-04-27T05:16:55.140Z,5.55
2023-04-27T05:19:21.751Z,6.68
2023-04-27T05:21:48.528Z,6.10
2023-04-27T05:24:15.057Z,6.13
2023-04-27T05:26:42.828Z,6.00
2023-04-27T05:29:09.406Z,5.95
2023-04-27T05:31:36.295Z,7.25
2023-04-27T05:34:02.860Z,7.40
2023-04-27T05:36:29.358Z,7.70
2023-04-27T05:38:56.231Z,9.55
2023-04-27T05:41:23.775Z,8.00
2023-04-27T05:43:50.272Z,7.85
2023-04-27T05:46:16.966Z,8.27
2023-04-27T05:48:43.544Z,7.88
2023-04-27T05:51:10.140Z,7.68
2023-04-27T05:53:36.670Z,8.32
2023-04-27T05:56:04.603Z,7.50
2023-04-27T05:58:31.295Z,6.38
2023-04-27T06:00:57.832Z,6.72
2023-04-27T06:03:25.056Z,6.70
2023-04-27T06:05:59.663Z,7.22
2023-04-27T06:08:27.049Z,6.60
2023-04-27T06:10:54.092Z,6.22
2023-04-27T06:13:21.124Z,6.50
2023-04-27T06:15:48.016Z,6.45
2023-04-27T06:18:14.588Z,6.15
2023-04-27T06:20:42.009Z,6.75
2023-04-27T06:23:08.848Z,7.03
2023-04-27T06:25:37.508Z,6.93
2023-04-27T06:28:04.257Z,6.32
2023-04-27T06:30:30.893Z,7.03
2023-04-27T06:32:57.335Z,7.45
2023-04-27T06:35:23.795Z,6.00
2023-04-27T06:37:50.290Z,7.50
2023-04-27T06:40:16.943Z,6.65
2023-04-27T06:42:43.485Z,6.75
2023-04-27T06:45:10.683Z,6.93
2023-04-27T06:47:37.159Z,5.88
2023-04-27T06:50:04.282Z,5.38
2023-04-27T06:52:33.182Z,5.38
2023-04-27T06:54:59.762Z,6.80
2023-04-27T06:57:26.428Z,5.78
2023-04-27T06:59:52.883Z,5.32
2023-04-27T07:02:19.572Z,5.53
2023-04-27T07:04:46.612Z,5.35
2023-04-27T07:07:13.381Z,5.30
2023-04-27T07:09:39.810Z,4.32
2023-04-27T07:12:06.658Z,5.63
2023-04-27T07:14:33.913Z,5.40
2023-04-27T07:17:00.471Z,5.20
2023-04-27T07:19:26.995Z,5.13
2023-04-27T07:21:53.744Z,5.93
2023-04-27T07:24:20.640Z,5.07
2023-04-27T07:26:48.096Z,5.30
2023-04-27T07:29:26.613Z,4.97
2023-04-27T07:31:54.576Z,6.00
2023-04-27T07:34:21.229Z,5.75
2023-04-27T07:36:47.663Z,5.57
2023-04-27T07:39:15.024Z,5.13
2023-04-27T07:41:42.109Z,5.15
2023-04-27T07:44:08.618Z,5.00
2023-04-27T07:46:35.154Z,5.80
2023-04-27T07:49:02.425Z,5.75
2023-04-27T07:51:28.985Z,4.82
2023-04-27T07:53:56.338Z,4.80
2023-04-27T07:56:22.822Z,5.53
2023-04-27T07:58:49.312Z,4.68
2023-04-27T08:01:15.844Z,4.50
2023-04-27T08:03:42.414Z,4.32
2023-04-27T08:06:09.618Z,4.80
2023-04-27T08:08:36.346Z,4.78
2023-04-27T08:11:03.110Z,5.28
2023-04-27T08:13:29.702Z,4.68
2023-04-27T08:15:59.306Z,4.35
2023-04-27T08:18:26.348Z,4.28
2023-04-27T08:20:53.340Z,4.93
2023-04-27T08:23:20.102Z,5.50
2023-04-27T08:25:47.152Z,4.50
2023-04-27T08:28:15.125Z,4.28
2023-04-27T08:30:42.856Z,4.63
2023-04-27T08:33:09.530Z,4.05
2023-04-27T08:35:36.107Z,3.10
2023-04-27T08:38:02.714Z,3.15
2023-04-27T08:40:29.533Z,3.22
2023-04-27T08:42:58.298Z,3.05
2023-04-27T08:45:26.377Z,3.42
2023-04-27T08:47:53.957Z,2.97
2023-04-27T08:50:20.496Z,2.97
2023-04-27T08:52:48.032Z,2.88
2023-04-27T08:55:16.737Z,2.80
2023-04-27T08:57:54.146Z,2.40
2023-04-27T09:00:21.041Z,2.67
2023-04-27T09:02:48.752Z,2.85
2023-04-27T09:05:24.790Z,2.60
2023-04-27T09:07:59.184Z,2.67
2023-04-27T09:10:25.768Z,2.38
2023-04-27T09:13:00.970Z,2.08
2023-04-27T09:15:28.772Z,2.17
2023-04-27T09:17:57.071Z,2.20
2023-04-27T09:20:24.368Z,1.63
2023-04-27T09:22:58.355Z,1.73
2023-04-27T09:25:31.377Z,1.90
2023-04-27T09:28:00.033Z,1.60
2023-04-27T09:30:28.023Z,1.90
2023-04-27T09:33:01.619Z,1.35
2023-04-27T09:35:31.424Z,1.50
2023-04-27T09:37:58.554Z,1.50
2023-04-27T09:40:28.198Z,1.70
2023-04-27T09:42:56.906Z,1.70
2023-04-27T09:45:25.329Z,1.60
2023-04-27T09:47:52.869Z,2.08
2023-04-27T09:50:19.889Z,1.75
2023-04-27T09:52:47.098Z,1.80
2023-04-27T09:55:19.966Z,1.42
2023-04-27T10:00:39.471Z,1.70
2023-04-27T10:03:25.531Z,1.48
2023-04-27T10:06:29.503Z,1.70
2023-04-27T10:08:57.131Z,2.88
2023-04-27T10:11:38.562Z,1.55
2023-04-27T10:14:09.552Z,1.50
2023-04-27T10:16:57.175Z,1.20
2023-04-27T10:19:24.990Z,1.38
2023-04-27T10:22:07.982Z,1.23
2023-04-27T10:27:05.853Z,1.20
2023-04-27T10:29:36.982Z,1.45
2023-04-27T10:32:08.948Z,1.65
2023-04-27T10:34:39.430Z,1.90
2023-04-27T10:37:11.017Z,1.40
2023-04-27T10:39:48.610Z,1.30
2023-04-27T10:42:28.415Z,2.97
2023-04-27T10:44:57.774Z,2.17
2023-04-27T10:47:24.839Z,1.48
2023-04-27T10:49:54.365Z,1.65
2023-04-27T10:52:21.027Z,1.60
2023-04-27T10:54:47.726Z,1.27
2023-04-27T10:57:14.312Z,2.03
2023-04-27T10:59:51.833Z,1.85
2023-04-27T11:02:26.553Z,1.58
2023-04-27T11:04:53.192Z,1.48
2023-04-27T11:07:27.725Z,1.58
2023-04-27T11:09:55.335Z,1.63
2023-04-27T11:12:22.351Z,1.60
2023-04-27T11:14:48.960Z,1.40
2023-04-27T11:17:15.473Z,1.58
2023-04-27T11:19:47.035Z,1.50
2023-04-27T11:22:16.896Z,1.48
2023-04-27T11:24:50.430Z,1.55
2023-04-27T11:27:17.999Z,1.10
2023-04-27T11:29:44.904Z,1.55
2023-04-27T11:32:21.779Z,1.50
2023-04-27T11:34:53.773Z,1.00
2023-04-27T11:39:52.432Z,1.20
2023-04-27T11:42:24.160Z,1.13
2023-04-27T11:45:01.085Z,1.20
2023-04-27T11:47:30.110Z,1.60
2023-04-27T11:50:00.610Z,1.25
2023-04-27T11:52:34.279Z,1.20
2023-04-27T11:55:02.131Z,1.00
2023-04-27T11:57:31.314Z,1.40
2023-04-27T12:00:00.426Z,1.27
2023-04-27T12:02:28.638Z,1.30
2023-04-27T12:04:55.624Z,1.60
2023-04-27T12:07:22.231Z,1.40
2023-04-27T12:09:48.792Z,1.40
2023-04-27T12:12:18.320Z,1.27
2023-04-27T12:14:46.001Z,1.23
2023-04-27T12:17:12.794Z,1.40
2023-04-27T12:19:39.408Z,1.20
2023-04-27T12:22:06.153Z,0.88
2023-04-27T12:24:32.709Z,1.13
2023-04-27T12:26:59.709Z,1.40
2023-04-27T12:29:26.177Z,1.48
2023-04-27T12:31:53.290Z,1.10
2023-04-27T12:34:20.187Z,1.20
2023-04-27T12:36:47.136Z,1.40
2023-04-27T12:39:16.095Z,1.25
2023-04-27T12:41:50.396Z,1.15
2023-04-27T12:44:18.941Z,1.35
2023-04-27T12:46:48.235Z,2.03
2023-04-27T12:49:15.571Z,2.08
2023-04-27T12:51:42.407Z,1.95
2023-04-27T12:54:10.613Z,1.48
2023-04-27T12:56:37.154Z,1.23
2023-04-27T12:59:04.057Z,0.98
2023-04-27T13:01:31.501Z,1.27
2023-04-27T13:04:05.961Z,1.17
2023-04-27T13:06:32.759Z,1.20
2023-04-27T13:08:59.760Z,1.55
2023-04-27T13:11:27.141Z,1.10
2023-04-27T13:13:54.902Z,1.20
2023-04-27T13:16:22.771Z,1.20
2023-04-27T13:18:51.991Z,1.25
2023-04-27T13:21:18.949Z,1.30
2023-04-27T13:23:45.424Z,1.00
2023-04-27T13:26:11.936Z,1.00
2023-04-27T13:28:38.441Z,1.13
2023-04-27T13:31:06.027Z,1.00
2023-04-27T13:33:34.490Z,1.27
2023-04-27T13:36:02.459Z,1.85
2023-04-27T13:38:29.050Z,1.00
2023-04-27T13:40:55.510Z,1.20
2023-04-27T13:43:22.272Z,1.10
2023-04-27T13:45:50.777Z,1.38
2023-04-27T13:48:17.342Z,1.45
2023-04-27T13:50:43.888Z,1.10
2023-04-27T13:53:10.412Z,1.55
2023-04-27T13:55:37.217Z,2.22
2023-04-27T13:58:04.005Z,1.58
2023-04-27T14:00:34.714Z,1.30
2023-04-27T14:03:01.675Z,1.15
2023-04-27T14:05:28.742Z,1.00
2023-04-27T14:07:55.366Z,1.30
2023-04-27T14:10:22.666Z,1.17
2023-04-27T14:12:49.281Z,5.80
2023-04-27T14:15:15.932Z,1.33
2023-04-27T14:17:42.660Z,1.05
2023-04-27T14:20:09.245Z,1.00
2023-04-27T14:22:36.971Z,2.35
2023-04-27T14:25:03.607Z,1.50
2023-04-27T14:27:30.102Z,0.90
2023-04-27T14:29:56.620Z,1.20
2023-04-27T14:32:23.461Z,1.10
2023-04-27T14:34:50.105Z,1.15
2023-04-27T14:37:16.708Z,1.10
2023-04-27T14:39:45.259Z,0.90
2023-04-27T14:42:12.104Z,1.25
2023-04-27T14:44:38.657Z,1.20
2023-04-27T14:47:06.403Z,1.10
2023-04-27T14:49:32.975Z,1.00
2023-04-27T14:52:03.178Z,0.80
2023-04-27T14:54:29.665Z,1.00
2023-04-27T14:56:58.160Z,1.02
2023-04-27T14:59:25.395Z,1.25
2023-04-27T15:01:52.250Z,1.33
2023-04-27T15:04:20.104Z,1.00
2023-04-27T15:06:47.015Z,0.98
2023-04-27T15:09:13.672Z,1.27
2023-04-27T15:11:40.492Z,1.10
2023-04-27T15:14:08.479Z,1.30
2023-04-27T15:16:35.048Z,1.27
2023-04-27T15:19:01.618Z,1.20
2023-04-27T15:21:28.119Z,1.08
2023-04-27T15:23:54.620Z,0.93
2023-04-27T15:26:21.392Z,2.08
2023-04-27T15:28:47.980Z,1.60
2023-04-27T15:31:14.510Z,1.10
2023-04-27T15:33:41.182Z,1.73
2023-04-27T15:36:07.843Z,1.40
2023-04-27T15:38:34.340Z,1.20
2023-04-27T15:41:00.950Z,3.95
2023-04-27T15:43:27.423Z,29.58
2023-04-27T15:45:54.008Z,1.98
2023-04-27T15:48:20.650Z,1.40
2023-04-27T15:50:47.160Z,1.25
2023-04-27T15:53:13.679Z,1.00
2023-04-27T15:55:40.649Z,0.90
2023-04-27T15:58:07.101Z,1.30
2023-04-27T16:00:35.099Z,0.90
2023-04-27T16:03:01.828Z,1.00
2023-04-27T16:05:28.586Z,1.05
2023-04-27T16:07:55.056Z,1.00
2023-04-27T16:10:21.912Z,1.20
2023-04-27T16:12:48.399Z,1.58
2023-04-27T16:15:15.015Z,0.90
2023-04-27T16:17:41.728Z,1.17
2023-04-27T16:20:09.423Z,1.17
2023-04-27T16:22:37.012Z,1.33
2023-04-27T16:25:06.562Z,1.00
2023-04-27T16:27:33.519Z,1.48
2023-04-27T16:30:00.083Z,1.02
2023-04-27T16:32:26.937Z,0.82
2023-04-27T16:34:53.797Z,0.95
2023-04-27T16:37:20.431Z,1.13
2023-04-27T16:39:46.971Z,1.58
2023-04-27T16:42:18.571Z,1.30
2023-04-27T16:44:45.208Z,1.10
2023-04-27T16:47:12.064Z,0.90
2023-04-27T16:49:38.651Z,1.20
2023-04-27T16:52:05.404Z,1.00
2023-04-27T16:54:31.944Z,1.00
2023-04-27T16:56:58.503Z,0.88
2023-04-27T16:59:25.076Z,1.15
2023-04-27T17:01:52.117Z,1.10
2023-04-27T17:04:18.782Z,1.02
2023-04-27T17:06:48.500Z,0.77
2023-04-27T17:09:15.309Z,1.00
2023-04-27T17:11:42.214Z,0.90
2023-04-27T17:14:08.798Z,1.17
2023-04-27T17:16:35.300Z,1.20
2023-04-27T17:19:02.207Z,1.10
2023-04-27T17:21:28.801Z,1.00
2023-04-27T17:23:55.634Z,1.08
2023-04-27T17:26:22.700Z,0.82
2023-04-27T17:28:49.547Z,2.10
2023-04-27T17:31:17.517Z,2.13
2023-04-27T17:33:44.107Z,3.22
2023-04-27T17:36:11.273Z,2.45
2023-04-27T17:38:37.844Z,1.92
2023-04-27T17:41:04.398Z,1.63
2023-04-27T17:43:30.884Z,1.38
2023-04-27T17:45:57.376Z,1.63
2023-04-27T17:48:24.479Z,1.30
2023-04-27T17:50:51.153Z,1.40
2023-04-27T17:53:17.687Z,1.00
2023-04-27T17:55:45.537Z,0.93
2023-04-27T17:58:12.245Z,1.00
2023-04-27T18:00:39.124Z,0.80
2023-04-27T18:03:05.832Z,0.80
2023-04-27T18:05:32.653Z,1.20
2023-04-27T18:07:59.154Z,1.40
2023-04-27T18:10:25.699Z,1.42
2023-04-27T18:12:52.132Z,1.60
2023-04-27T18:15:19.609Z,1.23
2023-04-27T18:17:46.160Z,1.60
2023-04-27T18:20:12.796Z,1.33
2023-04-27T18:22:40.176Z,1.23
2023-04-27T18:25:10.442Z,1.70
2023-04-27T18:27:39.446Z,1.27
2023-04-27T18:30:07.777Z,1.25
2023-04-27T18:32:34.823Z,1.20
2023-04-27T18:35:02.324Z,1.27
2023-04-27T18:37:29.227Z,1.30
2023-04-27T18:39:55.707Z,2.08
2023-04-27T18:42:23.611Z,1.10
2023-04-27T18:44:54.752Z,2.08
2023-04-27T18:47:21.444Z,1.38
2023-04-27T18:49:48.251Z,1.38
2023-04-27T18:52:14.812Z,1.50
2023-04-27T18:54:42.153Z,1.45
2023-04-27T18:57:08.684Z,1.73
2023-04-27T18:59:37.655Z,1.40
2023-04-27T19:02:04.146Z,1.55
2023-04-27T19:04:30.778Z,1.50
2023-04-27T19:06:57.273Z,1.70
2023-04-27T19:09:23.841Z,1.38
2023-04-27T19:12:00.044Z,1.65
2023-04-27T19:14:30.811Z,1.52
2023-04-27T19:16:57.340Z,1.83
2023-04-27T19:19:26.435Z,1.55
2023-04-27T19:21:53.343Z,2.20
2023-04-27T19:24:19.864Z,1.75
2023-04-27T19:26:48.387Z,2.10
2023-04-27T19:29:15.383Z,1.83
2023-04-27T19:31:42.595Z,1.98
2023-04-27T19:34:09.256Z,2.25
2023-04-27T19:36:35.814Z,2.28
2023-04-27T19:39:02.276Z,1.98
2023-04-27T19:41:28.828Z,2.25
2023-04-27T19:43:55.496Z,2.15
2023-04-27T19:46:22.062Z,2.05
2023-04-27T19:48:49.706Z,1.65
2023-04-27T19:51:16.537Z,1.77
2023-04-27T19:53:43.023Z,2.00
2023-04-27T19:56:09.540Z,1.55
2023-04-27T19:58:37.119Z,1.90
2023-04-27T20:01:04.086Z,1.75
2023-04-27T20:03:30.881Z,1.70
2023-04-27T20:05:57.723Z,1.67
2023-04-27T20:08:24.980Z,2.38
2023-04-27T20:10:51.548Z,2.10
2023-04-27T20:13:18.074Z,2.03
2023-04-27T20:15:44.682Z,2.38
2023-04-27T20:18:11.344Z,1.83
2023-04-27T20:20:37.947Z,1.90
2023-04-27T20:23:04.455Z,2.03
2023-04-27T20:25:31.011Z,2.38
2023-04-27T20:27:57.465Z,2.25
2023-04-27T20:30:24.054Z,2.13
2023-04-27T20:32:50.670Z,1.83
2023-04-27T20:35:17.496Z,1.80
2023-04-27T20:37:44.249Z,2.10
2023-04-27T20:40:14.445Z,2.60
2023-04-27T20:42:42.531Z,2.08
2023-04-27T20:45:11.409Z,2.13
2023-04-27T20:47:38.235Z,2.20
2023-04-27T20:50:06.306Z,2.15
2023-04-27T20:52:34.575Z,2.13
2023-04-27T20:55:01.587Z,2.22
2023-04-27T20:57:28.097Z,2.35
2023-04-27T20:59:55.150Z,1.88
2023-04-27T21:02:21.657Z,2.13
2023-04-27T21:04:48.247Z,2.35
2023-04-27T21:07:14.855Z,2.40
2023-04-27T21:09:41.635Z,2.00
2023-04-27T21:12:08.747Z,2.40
2023-04-27T21:14:35.295Z,3.30
2023-04-27T21:17:01.892Z,2.70
2023-04-27T21:19:28.385Z,2.53
2023-04-27T21:21:54.848Z,2.35
2023-04-27T21:24:21.532Z,2.65
2023-04-27T21:26:48.193Z,2.63
2023-04-27T21:29:14.667Z,2.63
2023-04-27T21:31:41.280Z,2.65
2023-04-27T21:34:08.198Z,2.97
2023-04-27T21:36:34.837Z,3.08
2023-04-27T21:39:01.330Z,2.92
2023-04-27T21:41:27.808Z,2.67
2023-04-27T21:43:54.365Z,2.50
2023-04-27T21:46:23.019Z,3.08
2023-04-27T21:48:49.580Z,3.55
2023-04-27T21:51:16.088Z,2.78
2023-04-27T21:53:42.558Z,2.47
2023-04-27T21:56:09.000Z,2.83
2023-04-27T21:58:35.438Z,2.92
2023-04-27T22:01:02.325Z,2.65
2023-04-27T22:03:29.010Z,2.70
2023-04-27T22:05:57.551Z,2.55
2023-04-27T22:08:24.149Z,2.30
2023-04-27T22:10:50.895Z,2.40
2023-04-27T22:13:19.402Z,2.92
2023-04-27T22:15:46.555Z,2.60
2023-04-27T22:18:14.390Z,2.60
2023-04-27T22:20:41.556Z,2.80
2023-04-27T22:23:09.234Z,3.00
2023-04-27T22:25:35.763Z,3.10
2023-04-27T22:28:02.283Z,2.90
2023-04-27T22:30:29.459Z,3.05
2023-04-27T22:32:56.818Z,3.10
2023-04-27T22:35:27.044Z,2.70
2023-04-27T22:37:58.942Z,3.60
2023-04-27T22:40:25.665Z,4.00
2023-04-27T22:42:53.181Z,3.20
2023-04-27T22:45:19.682Z,3.58
2023-04-27T22:47:46.329Z,3.80
2023-04-27T22:50:13.557Z,3.45
2023-04-27T22:52:42.260Z,2.90
2023-04-27T22:55:10.443Z,2.85
2023-04-27T22:57:37.330Z,2.80
2023-04-27T23:00:11.837Z,3.03
2023-04-27T23:02:42.831Z,3.30
2023-04-27T23:05:11.028Z,2.97
2023-04-27T23:07:37.872Z,2.88
2023-04-27T23:10:05.840Z,2.90
2023-04-27T23:12:32.480Z,3.15
2023-04-27T23:14:59.326Z,3.63
2023-04-27T23:17:30.592Z,4.05
2023-04-27T23:20:01.934Z,4.13
2023-04-27T23:22:29.457Z,4.80
2023-04-27T23:24:56.260Z,4.55
2023-04-27T23:27:24.674Z,5.57
2023-04-27T23:29:51.336Z,5.07
2023-04-27T23:32:17.908Z,4.78
2023-04-27T23:34:44.475Z,4.50
2023-04-27T23:37:11.200Z,4.03
2023-04-27T23:39:38.290Z,3.67
2023-04-27T23:42:04.834Z,4.25
2023-04-27T23:44:31.378Z,3.78
2023-04-27T23:46:58.398Z,3.83
2023-04-27T23:49:24.851Z,4.07
2023-04-27T23:51:52.430Z,4.50
2023-04-27T23:54:19.085Z,3.88
2023-04-27T23:56:45.567Z,4.07
2023-04-27T23:59:12.101Z,4.07
